Time;durP1;ratioP1;P1;durP2;ratioP2;P2;SDS_P1;SDS_P2;PMS_P1;PMS_P2;Temp;Humidity;BMP_temperature;BMP_pressure;BME280_temperature;BME280_humidity;BME280_pressure;Samples;Min_cycle;Max_cycle;Signal;HPM_P1;HPM_P2
2023/07/25 00:00:40;;;;;;;11.60;8.60;;;;;;;22.77;61.30;98896.13;105556;1253;73840;-68
2023/07/25 00:03:08;;;;;;;9.30;7.90;;;;;;;22.75;61.07;98895.36;105453;1254;70823;-69
2023/07/25 00:05:36;;;;;;;10.00;8.40;;;;;;;22.74;60.80;98896.08;105647;1257;73680;-68
2023/07/25 00:08:04;;;;;;;10.30;8.50;;;;;;;22.73;60.82;98890.05;105553;1257;60469;-69
2023/07/25 00:10:33;;;;;;;8.40;7.60;;;;;;;22.73;60.42;98889.20;105767;1253;60568;-73
2023/07/25 00:13:01;;;;;;;8.50;7.60;;;;;;;22.74;59.65;98886.91;105704;1254;72601;-71
2023/07/25 00:15:28;;;;;;;8.20;7.20;;;;;;;22.76;59.59;98881.13;106704;1254;69947;-70
2023/07/25 00:17:56;;;;;;;8.90;7.10;;;;;;;22.80;59.02;98885.73;106358;1253;73665;-69
2023/07/25 00:20:24;;;;;;;9.20;7.80;;;;;;;22.84;58.84;98880.45;105562;1254;60540;-70
2023/07/25 00:22:52;;;;;;;7.70;6.90;;;;;;;22.88;58.11;98887.96;105397;1258;60539;-71
2023/07/25 00:25:19;;;;;;;9.40;7.70;;;;;;;22.90;57.96;98879.47;105544;1254;74258;-72
2023/07/25 00:27:47;;;;;;;9.60;7.70;;;;;;;22.93;57.73;98879.79;105480;1257;70690;-70
2023/07/25 00:30:15;;;;;;;14.30;7.60;;;;;;;22.91;57.50;98866.19;105469;1254;72839;-71
2023/07/25 00:32:42;;;;;;;8.30;7.10;;;;;;;22.90;57.61;98858.83;105431;1257;60531;-70
2023/07/25 00:35:10;;;;;;;11.60;7.60;;;;;;;22.86;57.55;98862.73;105506;1259;60414;-71
2023/07/25 00:37:37;;;;;;;12.30;8.10;;;;;;;22.84;57.74;98862.84;105527;1258;73969;-73
2023/07/25 00:40:06;;;;;;;8.70;7.60;;;;;;;22.81;57.75;98860.39;105472;1258;70301;-71
2023/07/25 00:42:33;;;;;;;8.70;7.40;;;;;;;22.78;57.75;98858.87;105592;1254;72914;-72
2023/07/25 00:45:01;;;;;;;8.50;7.60;;;;;;;22.75;57.80;98853.62;106223;1259;60425;-72
2023/07/25 00:47:28;;;;;;;10.30;7.30;;;;;;;22.70;57.77;98845.22;106545;1256;60460;-71
2023/07/25 00:49:56;;;;;;;9.10;7.80;;;;;;;22.66;57.85;98854.91;105424;1255;73803;-70
2023/07/25 00:52:23;;;;;;;13.70;7.80;;;;;;;22.62;58.04;98849.77;105594;1256;69222;-71
2023/07/25 00:54:51;;;;;;;10.80;8.10;;;;;;;22.55;58.15;98849.70;105509;1254;71479;-69
2023/07/25 00:57:19;;;;;;;9.10;8.20;;;;;;;22.50;58.33;98847.75;105466;1254;60540;-71
2023/07/25 00:59:47;;;;;;;8.60;7.30;;;;;;;22.47;58.35;98846.39;105402;1254;61054;-71
2023/07/25 01:02:15;;;;;;;8.40;7.30;;;;;;;22.40;58.37;98854.70;105728;1254;72581;-71
2023/07/25 01:04:43;;;;;;;10.30;8.40;;;;;;;22.28;58.50;98855.43;105569;1258;69670;-72
2023/07/25 01:07:12;;;;;;;8.50;7.00;;;;;;;22.15;58.82;98855.42;105571;1256;70580;-71
2023/07/25 01:09:40;;;;;;;11.70;8.00;;;;;;;22.03;59.04;98866.41;105434;1257;60537;-69
2023/07/25 01:12:08;;;;;;;8.80;7.90;;;;;;;21.91;59.33;98868.98;105982;1253;62046;-72
2023/07/25 01:14:37;;;;;;;11.70;8.30;;;;;;;21.82;59.65;98871.63;106809;1254;72619;-70
2023/07/25 01:17:09;;;;;;;9.20;7.70;;;;;;;21.72;59.83;98866.81;107075;1254;69296;-69
2023/07/25 01:19:38;;;;;;;10.70;8.00;;;;;;;21.63;60.13;98865.63;105591;1254;72691;-70
2023/07/25 01:22:07;;;;;;;9.50;7.70;;;;;;;21.55;60.45;98863.80;105616;1259;60415;-71
2023/07/25 01:24:36;;;;;;;15.30;7.80;;;;;;;21.47;60.58;98855.91;105673;1254;60664;-71
2023/07/25 01:27:04;;;;;;;9.90;8.00;;;;;;;21.41;60.96;98851.69;105640;1254;74046;-69
2023/07/25 01:29:32;;;;;;;10.80;8.20;;;;;;;21.35;61.16;98850.20;105609;1256;70546;-71
2023/07/25 01:31:59;;;;;;;11.20;8.40;;;;;;;21.30;61.38;98850.70;105404;1254;72743;-71
2023/07/25 01:34:27;;;;;;;9.70;8.70;;;;;;;21.24;61.66;98852.17;105276;1261;60977;-71
2023/07/25 01:36:54;;;;;;;9.10;8.10;;;;;;;21.18;61.80;98847.22;105539;1258;60531;-69
2023/07/25 01:39:22;;;;;;;15.80;10.30;;;;;;;21.12;62.00;98853.81;105570;1258;72625;-71
2023/07/25 01:41:49;;;;;;;10.60;7.90;;;;;;;21.05;62.29;98852.35;105602;1254;69029;-72
2023/07/25 01:44:17;;;;;;;11.60;8.60;;;;;;;20.98;62.47;98855.83;105584;1254;72652;-68
2023/07/25 01:46:44;;;;;;;9.60;7.90;;;;;;;20.92;62.73;98855.55;106348;1254;60529;-72
2023/07/25 01:49:12;;;;;;;9.30;8.00;;;;;;;20.85;63.03;98864.13;105824;1258;60511;-71
2023/07/25 01:51:39;;;;;;;8.60;7.40;;;;;;;20.78;63.20;98856.51;105688;1254;72923;-72
2023/07/25 01:54:07;;;;;;;11.30;9.20;;;;;;;20.70;63.41;98861.84;105632;1254;69273;-69
2023/07/25 01:56:34;;;;;;;10.80;8.30;;;;;;;20.64;63.62;98858.77;105672;1254;71692;-69
2023/07/25 01:59:02;;;;;;;12.90;9.00;;;;;;;20.59;63.79;98859.94;105502;1259;60550;-71
2023/07/25 02:01:29;;;;;;;9.00;8.00;;;;;;;20.53;63.99;98862.36;105558;1254;60536;-73
2023/07/25 02:03:57;;;;;;;12.10;9.10;;;;;;;20.47;64.24;98857.92;105556;1254;72846;-70
2023/07/25 02:06:25;;;;;;;12.70;9.50;;;;;;;20.40;64.42;98856.08;105429;1253;70424;-70
2023/07/25 02:08:52;;;;;;;16.40;8.90;;;;;;;20.35;64.63;98867.88;105650;1253;71061;-74
2023/07/25 02:11:20;;;;;;;9.50;8.20;;;;;;;20.30;64.68;98856.88;105619;1257;60484;-71
2023/07/25 02:13:47;;;;;;;9.10;8.20;;;;;;;20.28;64.89;98854.65;105692;1254;60789;-72
2023/07/25 02:16:15;;;;;;;11.60;8.50;;;;;;;20.25;64.91;98855.14;107363;1256;73922;-70
2023/07/25 02:18:42;;;;;;;10.60;8.50;;;;;;;20.22;64.91;98852.70;106449;1253;70446;-72
2023/07/25 02:21:10;;;;;;;10.10;8.60;;;;;;;20.21;65.17;98851.98;105763;1254;72687;-73
2023/07/25 02:23:37;;;;;;;9.40;8.00;;;;;;;20.19;65.12;98848.64;105702;1259;60985;-73
2023/07/25 02:26:05;;;;;;;8.90;7.90;;;;;;;20.18;65.13;98845.09;105463;1254;60516;-71
2023/07/25 02:28:33;;;;;;;10.60;8.10;;;;;;;20.17;65.12;98844.60;105331;1259;74314;-71
2023/07/25 02:31:00;;;;;;;13.30;8.80;;;;;;;20.16;65.20;98842.48;105624;1257;67753;-69
2023/07/25 02:33:28;;;;;;;11.40;9.20;;;;;;;20.15;65.24;98850.19;105583;1254;72425;-70
2023/07/25 02:35:56;;;;;;;13.20;9.20;;;;;;;20.15;65.37;98851.70;105521;1254;60533;-71
2023/07/25 02:38:23;;;;;;;12.00;8.40;;;;;;;20.15;65.30;98853.20;105564;1254;60415;-70
2023/07/25 02:40:51;;;;;;;9.10;8.20;;;;;;;20.14;65.44;98840.48;105530;1257;74106;-70
2023/07/25 02:43:18;;;;;;;11.70;8.70;;;;;;;20.15;65.31;98838.49;105213;1253;69120;-71
2023/07/25 02:45:46;;;;;;;10.90;8.50;;;;;;;20.15;65.34;98841.89;105837;1254;74808;-69
2023/07/25 02:48:13;;;;;;;10.70;8.50;;;;;;;20.14;65.49;98836.00;106376;1256;60419;-70
2023/07/25 02:50:43;;;;;;;11.00;8.30;;;;;;;20.14;65.43;98833.03;105456;1254;60428;-69
2023/07/25 02:53:11;;;;;;;10.50;8.40;;;;;;;20.14;65.57;98822.83;105299;1254;73862;-71
2023/07/25 02:55:38;;;;;;;10.50;8.00;;;;;;;20.12;65.66;98824.97;105523;1254;70377;-72
2023/07/25 02:58:06;;;;;;;11.00;8.10;;;;;;;20.11;65.48;98825.44;105486;1254;72881;-70
2023/07/25 03:00:33;;;;;;;8.50;7.70;;;;;;;20.12;65.56;98825.89;105873;1257;60623;-73
2023/07/25 03:03:01;;;;;;;9.90;8.10;;;;;;;20.13;65.57;98830.21;105489;1259;60345;-71
2023/07/25 03:05:29;;;;;;;10.50;8.90;;;;;;;20.14;65.55;98825.52;105536;1254;72632;-73
2023/07/25 03:07:57;;;;;;;12.20;9.20;;;;;;;20.15;65.60;98829.86;105452;1257;68957;-72
2023/07/25 03:10:24;;;;;;;11.60;8.30;;;;;;;20.16;65.51;98825.17;105539;1254;72696;-73
2023/07/25 03:12:52;;;;;;;10.30;8.80;;;;;;;20.17;65.58;98834.09;105462;1253;60413;-73
2023/07/25 03:15:20;;;;;;;11.20;8.20;;;;;;;20.18;65.58;98835.39;105785;1254;62441;-71
2023/07/25 03:17:48;;;;;;;9.10;8.20;;;;;;;20.19;65.52;98831.73;107874;1253;72566;-73
2023/07/25 03:20:16;;;;;;;11.00;8.10;;;;;;;20.22;65.55;98839.11;105738;1254;69300;-74
2023/07/25 03:22:43;;;;;;;10.10;8.50;;;;;;;20.25;65.57;98829.85;105454;1254;72679;-72
2023/07/25 03:25:11;;;;;;;9.40;7.90;;;;;;;20.26;65.62;98827.83;105538;1259;61340;-71
2023/07/25 03:27:38;;;;;;;13.90;8.20;;;;;;;20.29;65.58;98820.36;105489;1253;60786;-72
2023/07/25 03:30:06;;;;;;;8.90;7.90;;;;;;;20.32;65.34;98822.22;105539;1259;73795;-72
2023/07/25 03:32:34;;;;;;;10.60;7.60;;;;;;;20.37;65.31;98823.35;105728;1254;68682;-70
2023/07/25 03:35:02;;;;;;;10.90;7.40;;;;;;;20.42;65.19;98822.54;105314;1254;71401;-72
2023/07/25 03:37:30;;;;;;;13.10;8.30;;;;;;;20.47;64.92;98816.32;105592;1254;60431;-71
2023/07/25 03:39:57;;;;;;;15.20;7.90;;;;;;;20.52;64.79;98806.55;105497;1254;60466;-70
2023/07/25 03:42:25;;;;;;;11.90;9.20;;;;;;;20.59;64.64;98802.40;105439;1254;72450;-70
2023/07/25 03:44:52;;;;;;;13.80;8.30;;;;;;;20.65;64.62;98793.96;105831;1254;70009;-71
2023/07/25 03:47:20;;;;;;;13.20;9.00;;;;;;;20.70;64.44;98788.88;106845;1259;71975;-73
2023/07/25 03:49:49;;;;;;;13.90;8.50;;;;;;;20.75;64.25;98791.40;105767;1254;60521;-71
2023/07/25 03:52:16;;;;;;;10.00;8.00;;;;;;;20.80;64.28;98797.26;105794;1254;60434;-73
2023/07/25 03:54:44;;;;;;;9.40;8.30;;;;;;;20.83;64.17;98798.20;105496;1254;73977;-72
2023/07/25 03:57:11;;;;;;;10.60;8.50;;;;;;;20.86;64.16;98797.91;105860;1259;70636;-73
2023/07/25 03:59:39;;;;;;;12.10;8.70;;;;;;;20.89;64.23;98802.78;105595;1259;72665;-73
2023/07/25 04:02:06;;;;;;;11.70;9.30;;;;;;;20.92;64.11;98809.82;105623;1254;60430;-73
2023/07/25 04:04:34;;;;;;;9.40;8.50;;;;;;;20.93;64.01;98804.77;105555;1257;60365;-76
2023/07/25 04:07:02;;;;;;;9.60;8.20;;;;;;;20.95;64.05;98810.44;105680;1259;73821;-75
2023/07/25 04:09:29;;;;;;;12.70;9.70;;;;;;;20.96;64.04;98794.95;105693;1254;70781;-73
2023/07/25 04:11:57;;;;;;;12.70;8.60;;;;;;;20.97;64.14;98785.23;105802;1254;73534;-73
2023/07/25 04:14:24;;;;;;;9.30;8.30;;;;;;;20.97;64.20;98786.21;105774;1254;60486;-74
2023/07/25 04:16:52;;;;;;;10.80;8.10;;;;;;;20.98;64.35;98787.61;106693;1253;60319;-74
2023/07/25 04:19:21;;;;;;;9.80;8.00;;;;;;;20.98;64.53;98788.34;107950;1252;71591;-72
2023/07/25 04:21:49;;;;;;;9.50;8.20;;;;;;;20.99;64.42;98791.57;106396;1259;69773;-72
2023/07/25 04:24:17;;;;;;;9.90;8.80;;;;;;;21.03;64.46;98802.45;105788;1254;72751;-71
2023/07/25 04:26:44;;;;;;;12.00;8.50;;;;;;;21.06;64.48;98792.53;105805;1253;60663;-71
2023/07/25 04:29:12;;;;;;;11.70;7.40;;;;;;;21.12;64.53;98799.33;105666;1254;60500;-74
2023/07/25 04:31:39;;;;;;;11.70;8.40;;;;;;;21.19;64.29;98804.13;105567;1254;73791;-73
2023/07/25 04:34:07;;;;;;;9.60;8.50;;;;;;;21.27;64.23;98795.70;105534;1254;70427;-72
2023/07/25 04:36:34;;;;;;;14.80;8.50;;;;;;;21.34;63.99;98796.77;105551;1253;72746;-73
2023/07/25 04:39:02;;;;;;;13.10;8.10;;;;;;;21.41;63.75;98801.23;105414;1259;60539;-71
2023/07/25 04:41:30;;;;;;;12.20;8.80;;;;;;;21.49;63.76;98797.52;105603;1259;60325;-69
2023/07/25 04:43:58;;;;;;;10.90;9.00;;;;;;;21.58;63.55;98803.39;105626;1257;74315;-72
2023/07/25 04:46:25;;;;;;;11.40;8.30;;;;;;;21.65;63.42;98809.05;105679;1254;70255;-72
2023/07/25 04:48:54;;;;;;;11.60;9.10;;;;;;;21.70;63.37;98808.48;106736;1254;71312;-73
2023/07/25 04:51:21;;;;;;;14.40;8.90;;;;;;;21.75;63.41;98801.95;106164;1254;60584;-72
2023/07/25 04:53:49;;;;;;;10.20;7.80;;;;;;;21.80;63.09;98795.05;105595;1254;61317;-70
2023/07/25 04:56:17;;;;;;;11.10;8.10;;;;;;;21.87;62.54;98793.08;105427;1254;72632;-73
2023/07/25 04:58:44;;;;;;;10.00;8.70;;;;;;;21.95;62.66;98789.38;105875;1254;70550;-72
2023/07/25 05:01:12;;;;;;;13.40;8.90;;;;;;;22.06;62.39;98781.18;105389;1254;71752;-75
2023/07/25 05:03:40;;;;;;;13.60;8.80;;;;;;;22.14;62.34;98776.48;105910;1255;60377;-74
2023/07/25 05:06:07;;;;;;;12.60;8.10;;;;;;;22.21;62.28;98780.94;105830;1254;60457;-75
2023/07/25 05:08:34;;;;;;;13.60;8.80;;;;;;;22.28;62.02;98773.95;105804;1257;75793;-73
2023/07/25 05:11:02;;;;;;;15.50;9.50;;;;;;;22.34;61.92;98772.88;105581;1254;70014;-74
2023/07/25 05:13:29;;;;;;;13.80;9.50;;;;;;;22.44;61.79;98774.45;105733;1259;71541;-76
2023/07/25 05:15:57;;;;;;;13.00;9.70;;;;;;;22.53;61.64;98767.64;105951;1254;60517;-75
2023/07/25 05:18:24;;;;;;;11.80;9.90;;;;;;;22.64;61.43;98772.84;106885;1254;60287;-73
2023/07/25 05:20:52;;;;;;;12.00;9.30;;;;;;;22.75;60.89;98778.34;106139;1258;73851;-74
2023/07/25 05:23:19;;;;;;;17.30;9.80;;;;;;;22.84;60.79;98765.31;105805;1258;69403;-72
2023/07/25 05:25:47;;;;;;;16.20;10.00;;;;;;;22.95;60.49;98775.48;105771;1254;71444;-72
2023/07/25 05:28:14;;;;;;;21.10;10.10;;;;;;;23.05;60.28;98772.67;106030;1254;60545;-71
2023/07/25 05:30:42;;;;;;;15.00;10.20;;;;;;;23.14;59.83;98762.57;106967;1253;257148;-71
2023/07/25 05:36:04;;;;;;;13.80;10.20;;;;;;;23.28;59.52;98753.70;104431;1292;601085;-71
2023/07/25 05:38:30;;;;;;;18.00;10.10;;;;;;;23.30;59.37;98756.19;106215;1266;59443;-73
2023/07/25 05:40:57;;;;;;;18.80;11.10;;;;;;;23.33;59.43;98746.00;106183;1266;58825;-71
2023/07/25 05:43:24;;;;;;;13.30;9.80;;;;;;;23.40;59.42;98745.97;106303;1270;72920;-72
2023/07/25 05:45:51;;;;;;;14.00;9.50;;;;;;;23.44;59.50;98744.76;106094;1270;68861;-72
2023/07/25 05:48:17;;;;;;;9.50;8.00;;;;;;;23.48;59.49;98746.42;106522;1264;204122;-80
2023/07/25 05:50:50;;;;;;;9.00;8.10;;;;;;;23.52;59.54;98735.84;107877;1263;58108;-79
2023/07/25 05:53:18;;;;;;;9.90;7.90;;;;;;;23.58;59.45;98734.24;108623;1263;59163;-76
2023/07/25 05:55:45;;;;;;;11.20;8.60;;;;;;;23.66;59.38;98732.73;108130;1266;72028;-79
2023/07/25 05:58:14;;;;;;;12.70;8.70;;;;;;;23.79;59.57;98733.56;108529;1263;69495;-79
2023/07/25 06:00:42;;;;;;;15.00;8.10;;;;;;;23.93;59.29;98735.98;108528;1263;71373;-78
2023/07/25 06:03:10;;;;;;;9.80;7.90;;;;;;;24.07;58.78;98748.11;106682;1264;59502;-79
2023/07/25 06:05:38;;;;;;;12.90;8.40;;;;;;;24.16;58.76;98738.11;105211;1267;60456;-79
2023/07/25 06:08:05;;;;;;;14.80;8.90;;;;;;;24.25;58.77;98739.30;105197;1267;72062;-74
2023/07/25 06:10:31;;;;;;;13.90;8.20;;;;;;;24.35;58.28;98745.79;105153;1263;70795;-73
2023/07/25 06:12:58;;;;;;;16.80;8.90;;;;;;;24.45;58.11;98746.37;105035;1266;73578;-76
2023/07/25 06:15:28;;;;;;;19.60;9.20;;;;;;;24.53;57.93;98734.45;104829;1267;59637;-77
2023/07/25 06:17:54;;;;;;;20.80;9.70;;;;;;;24.60;57.88;98731.99;105850;1263;60163;-78
2023/07/25 06:20:21;;;;;;;17.20;9.40;;;;;;;24.70;57.68;98728.59;107879;1266;71443;-79
2023/07/25 06:22:48;;;;;;;14.90;9.50;;;;;;;24.81;57.28;98725.61;108383;1263;68035;-77
2023/07/25 06:25:15;;;;;;;18.50;9.70;;;;;;;24.92;57.25;98719.91;105768;1264;71360;-75
2023/07/25 06:27:42;;;;;;;20.20;9.30;;;;;;;25.07;56.90;98729.86;105212;1264;60168;-76
2023/07/25 06:30:09;;;;;;;16.70;8.90;;;;;;;25.21;56.50;98720.98;105271;1269;60314;-73
2023/07/25 06:32:39;;;;;;;21.90;9.30;;;;;;;25.34;56.12;98721.05;105613;1263;72915;-76
2023/07/25 06:35:06;;;;;;;17.00;9.30;;;;;;;25.48;55.85;98722.02;106112;1267;69301;-75
2023/07/25 06:37:34;;;;;;;17.50;9.00;;;;;;;25.61;55.42;98718.70;105163;1266;73213;-76
2023/07/25 06:40:00;;;;;;;20.50;9.50;;;;;;;25.74;54.76;98716.96;105093;1263;60261;-76
2023/07/25 06:42:31;;;;;;;17.90;9.10;;;;;;;25.82;54.56;98708.95;105099;1269;60713;-75
2023/07/25 06:44:59;;;;;;;19.90;10.10;;;;;;;25.94;54.38;98702.98;105350;1264;73569;-77
2023/07/25 06:47:26;;;;;;;18.80;8.90;;;;;;;26.08;53.96;98700.55;105466;1264;69503;-77
2023/07/25 06:49:53;;;;;;;14.50;8.50;;;;;;;26.22;53.56;98700.88;107766;1263;72235;-75
2023/07/25 06:52:20;;;;;;;17.20;9.00;;;;;;;26.35;53.35;98700.05;106349;1267;59637;-75
2023/07/25 06:54:48;;;;;;;19.30;9.30;;;;;;;26.46;53.03;98699.02;105938;1263;60370;-76
2023/07/25 06:57:14;;;;;;;12.10;8.30;;;;;;;26.52;53.15;98694.13;106219;1256;73848;-76
2023/07/25 06:59:41;;;;;;;20.90;9.70;;;;;;;26.58;52.86;98700.95;106661;1257;70200;-77
2023/07/25 07:02:08;;;;;;;12.50;8.20;;;;;;;26.61;52.86;98695.14;106244;1257;72562;-75
2023/07/25 07:04:35;;;;;;;16.90;8.20;;;;;;;26.60;52.67;98694.77;105738;1257;59854;-78
2023/07/25 07:07:03;;;;;;;17.00;8.40;;;;;;;26.59;53.15;98686.45;105535;1257;59721;-78
2023/07/25 07:09:31;;;;;;;12.70;7.70;;;;;;;26.61;53.07;98686.98;105730;1260;73466;-77
2023/07/25 07:11:58;;;;;;;16.10;8.60;;;;;;;26.63;53.03;98689.59;105795;1257;70379;-76
2023/07/25 07:14:25;;;;;;;13.30;8.90;;;;;;;26.65;52.82;98682.05;105795;1260;72839;-76
2023/07/25 07:16:52;;;;;;;14.80;8.70;;;;;;;26.71;52.83;98678.36;105487;1257;60373;-76
2023/07/25 07:19:19;;;;;;;14.00;8.90;;;;;;;26.77;52.80;98676.77;106280;1256;61890;-75
2023/07/25 07:21:45;;;;;;;10.30;7.60;;;;;;;26.82;52.15;98680.31;106796;1257;72103;-77
2023/07/25 07:24:12;;;;;;;14.30;7.60;;;;;;;26.83;52.37;98669.50;106959;1263;69541;-78
2023/07/25 07:26:39;;;;;;;10.00;8.20;;;;;;;26.90;52.78;98647.95;105947;1257;72021;-77
2023/07/25 07:29:06;;;;;;;12.40;7.90;;;;;;;27.07;52.41;98648.48;105688;1257;60231;-76
2023/07/25 07:31:33;;;;;;;11.40;8.50;;;;;;;27.25;52.18;98654.80;105417;1256;60166;-77
2023/07/25 07:34:16;;;;;;;10.30;8.50;;;;;;;27.42;51.93;98653.52;105505;1262;73271;-78
2023/07/25 07:36:43;;;;;;;11.20;8.20;;;;;;;27.53;51.75;98644.91;105600;1257;70482;-75
2023/07/25 07:39:10;;;;;;;9.90;8.30;;;;;;;27.61;51.88;98644.93;106082;1254;72794;-75
2023/07/25 07:41:37;;;;;;;13.20;8.60;;;;;;;27.73;51.94;98650.88;105906;1254;59642;-78
2023/07/25 07:44:04;;;;;;;10.00;8.00;;;;;;;27.87;51.55;98650.13;106035;1252;60194;-77
2023/07/25 07:46:31;;;;;;;9.10;7.50;;;;;;;28.01;51.48;98646.78;105945;1256;73031;-77
2023/07/25 07:49:00;;;;;;;10.10;8.00;;;;;;;28.13;51.09;98647.71;107032;1252;68991;-76
2023/07/25 07:51:28;;;;;;;13.30;8.70;;;;;;;28.17;51.24;98643.23;107928;1254;71676;-78
2023/07/25 07:53:55;;;;;;;11.40;7.90;;;;;;;28.24;51.17;98643.45;106104;1254;60079;-75
2023/07/25 07:56:21;;;;;;;18.30;8.80;;;;;;;28.35;50.80;98644.92;105785;1252;60232;-79
2023/07/25 07:58:48;;;;;;;11.40;8.20;;;;;;;28.41;49.81;98649.36;105731;1253;73491;-77
2023/07/25 08:01:16;;;;;;;9.10;8.00;;;;;;;28.42;49.39;98633.88;105946;1254;70885;-76
2023/07/25 08:03:44;;;;;;;11.30;9.00;;;;;;;28.47;49.74;98637.17;105660;1254;73092;-74
2023/07/25 08:06:11;;;;;;;10.40;8.40;;;;;;;28.57;49.98;98638.15;105712;1254;60697;-76
2023/07/25 08:08:38;;;;;;;9.80;8.60;;;;;;;28.66;49.99;98646.49;105740;1254;60195;-77
2023/07/25 08:11:04;;;;;;;12.40;8.60;;;;;;;28.72;49.64;98647.20;105854;1253;73334;-78
2023/07/25 08:13:31;;;;;;;10.30;8.20;;;;;;;28.78;49.43;98640.59;106148;1253;70903;-77
2023/07/25 08:15:58;;;;;;;10.80;8.30;;;;;;;28.83;49.24;98640.45;106573;1256;73064;-76
2023/07/25 08:18:24;;;;;;;9.90;7.70;;;;;;;28.89;48.65;98642.21;106256;1256;60109;-76
2023/07/25 08:20:56;;;;;;;9.70;8.80;;;;;;;28.94;48.50;98635.73;107999;1254;60181;-78
2023/07/25 08:23:24;;;;;;;11.10;7.70;;;;;;;29.01;48.46;98636.17;107369;1256;72516;-74
2023/07/25 08:25:51;;;;;;;10.00;7.70;;;;;;;29.08;48.38;98640.54;106543;1254;69752;-75
2023/07/25 08:28:17;;;;;;;10.00;8.40;;;;;;;29.13;48.47;98634.98;106183;1253;73196;-74
2023/07/25 08:30:44;;;;;;;11.60;8.50;;;;;;;29.19;48.40;98630.96;105838;1253;60392;-75
2023/07/25 08:33:19;;;;;;;12.20;8.40;;;;;;;29.31;48.26;98642.20;105920;1256;60492;-76
2023/07/25 08:35:46;;;;;;;11.00;9.70;;;;;;;29.38;48.08;98638.89;105631;1254;72756;-78
2023/07/25 08:38:13;;;;;;;12.90;9.30;;;;;;;29.44;48.19;98643.92;105918;1254;71046;-77
2023/07/25 08:40:40;;;;;;;13.00;9.50;;;;;;;29.43;48.27;98635.96;105865;1254;73027;-73
2023/07/25 08:43:08;;;;;;;10.40;8.90;;;;;;;29.47;48.41;98632.52;106143;1254;60130;-74
2023/07/25 08:45:35;;;;;;;10.60;8.90;;;;;;;29.53;48.45;98631.83;106381;1254;60708;-77
2023/07/25 08:48:06;;;;;;;11.60;8.20;;;;;;;29.65;48.22;98624.14;106068;1256;72203;-75
2023/07/25 08:50:33;;;;;;;10.10;9.00;;;;;;;29.73;47.87;98622.33;107207;1258;70570;-78
2023/07/25 08:53:02;;;;;;;10.70;8.60;;;;;;;29.74;47.95;98619.05;107202;1254;73258;-75
2023/07/25 08:55:28;;;;;;;10.20;8.20;;;;;;;29.71;47.96;98618.20;107342;1253;60394;-75
2023/07/25 08:57:55;;;;;;;9.30;8.30;;;;;;;29.71;48.25;98613.62;106338;1254;59998;-76
2023/07/25 09:00:22;;;;;;;11.00;8.80;;;;;;;29.82;48.48;98611.52;106005;1254;73404;-76
2023/07/25 09:02:51;;;;;;;10.10;7.80;;;;;;;29.95;48.23;98610.76;105883;1254;70766;-76
2023/07/25 09:05:20;;;;;;;9.90;8.40;;;;;;;30.07;48.02;98596.14;105619;1254;73434;-75
2023/07/25 09:07:47;;;;;;;11.30;8.20;;;;;;;30.22;48.17;98603.27;105694;1252;59568;-74
2023/07/25 09:10:14;;;;;;;11.50;9.10;;;;;;;30.39;47.80;98600.13;105691;1254;60330;-76
2023/07/25 09:12:41;;;;;;;9.70;8.00;;;;;;;30.54;47.74;98598.33;105930;1256;73708;-75
2023/07/25 09:15:08;;;;;;;9.30;8.30;;;;;;;30.73;47.29;98596.02;105875;1254;70693;-78
2023/07/25 09:17:35;;;;;;;12.60;8.70;;;;;;;30.85;46.97;98608.35;105687;1254;73240;-78
2023/07/25 09:20:03;;;;;;;8.20;7.50;;;;;;;30.87;46.75;98604.44;106135;1254;61835;-74
2023/07/25 09:22:31;;;;;;;8.80;8.00;;;;;;;30.82;47.05;98606.23;106869;1254;60406;-77
2023/07/25 09:24:58;;;;;;;9.30;8.30;;;;;;;30.76;47.11;98595.91;106182;1256;72821;-77
2023/07/25 09:27:26;;;;;;;10.00;8.90;;;;;;;30.83;47.38;98578.27;105685;1254;70766;-77
2023/07/25 09:29:53;;;;;;;10.60;8.40;;;;;;;31.16;47.10;98580.09;105679;1254;72986;-77
2023/07/25 09:32:25;;;;;;;8.60;7.50;;;;;;;31.59;46.40;98573.59;105830;1253;60416;-75
2023/07/25 09:34:59;;;;;;;9.50;8.60;;;;;;;32.02;45.47;98575.31;105739;1256;60073;-77
2023/07/25 09:37:28;;;;;;;9.80;8.90;;;;;;;32.39;44.61;98569.80;105746;1257;73402;-79
2023/07/25 09:39:55;;;;;;;11.00;8.30;;;;;;;32.64;44.18;98569.77;106074;1254;70345;-79
2023/07/25 09:42:22;;;;;;;9.80;8.90;;;;;;;32.78;43.59;98578.88;105997;1253;72675;-78
2023/07/25 09:44:53;;;;;;;9.60;8.60;;;;;;;32.92;43.16;98572.95;105925;1254;60623;-75
2023/07/25 09:47:24;;;;;;;8.80;8.00;;;;;;;33.05;42.77;98572.57;105995;1254;61210;-78
2023/07/25 09:49:52;;;;;;;9.80;8.30;;;;;;;33.10;42.45;98574.85;106287;1254;72320;-77
2023/07/25 09:52:19;;;;;;;13.50;8.30;;;;;;;33.05;43.01;98562.96;107329;1254;70407;-77
2023/07/25 09:54:46;;;;;;;9.20;8.10;;;;;;;33.05;43.09;98565.65;108002;1256;72662;-76
2023/07/25 09:57:13;;;;;;;9.40;8.40;;;;;;;33.14;42.84;98563.73;106248;1254;60514;-77
2023/07/25 09:59:40;;;;;;;10.70;8.10;;;;;;;33.26;42.58;98556.79;105548;1254;60458;-78
2023/07/25 10:02:08;;;;;;;9.10;8.30;;;;;;;33.53;42.53;98560.33;105638;1254;74359;-76
2023/07/25 10:04:37;;;;;;;9.60;8.40;;;;;;;33.90;41.36;98559.40;105783;1254;70745;-75
2023/07/25 10:07:04;;;;;;;10.00;8.30;;;;;;;34.16;40.63;98554.58;105737;1254;73335;-75
2023/07/25 10:09:31;;;;;;;11.00;8.50;;;;;;;34.27;40.64;98549.98;105986;1254;60593;-78
2023/07/25 10:12:17;;;;;;;12.40;8.60;;;;;;;34.27;40.54;98550.32;106067;1256;60395;-76
2023/07/25 10:14:43;;;;;;;8.20;7.40;;;;;;;34.27;40.36;98547.71;105935;1254;74497;-75
2023/07/25 10:17:10;;;;;;;10.10;8.10;;;;;;;34.31;40.65;98550.02;105737;1254;71081;-78
2023/07/25 10:19:54;;;;;;;8.80;7.90;;;;;;;34.39;40.39;98546.48;106351;1253;72913;-79
2023/07/25 10:22:40;;;;;;;8.60;7.80;;;;;;;34.48;40.39;98545.77;109373;1254;58056;-80
2023/07/25 10:25:21;;;;;;;8.90;8.10;;;;;;;34.48;40.18;98547.27;107628;1253;59227;-76
2023/07/25 10:27:52;;;;;;;9.30;8.10;;;;;;;34.33;39.82;98536.61;107004;1253;65263;-78
2023/07/25 10:30:28;;;;;;;8.60;7.90;;;;;;;34.18;39.46;98566.90;106560;1254;71375;-76
2023/07/25 10:33:00;;;;;;;8.80;8.00;;;;;;;33.96;40.15;98549.17;106699;1252;72838;-76
2023/07/25 10:36:00;;;;;;;9.40;8.50;;;;;;;33.80;40.54;98545.52;106758;1254;60799;-78
2023/07/25 10:38:42;;;;;;;10.00;8.40;;;;;;;33.82;40.48;98546.99;106357;1252;60774;-78
2023/07/25 10:41:16;;;;;;;9.60;7.70;;;;;;;33.87;40.46;98551.36;106958;1257;72997;-76
2023/07/25 10:43:46;;;;;;;14.00;9.10;;;;;;;33.77;40.65;98537.17;106969;1255;70349;-76
2023/07/25 10:46:14;;;;;;;9.70;8.60;;;;;;;33.78;41.01;98537.84;106825;1254;71921;-78
2023/07/25 10:48:48;;;;;;;9.70;8.70;;;;;;;33.79;40.96;98529.05;106957;1254;60514;-77
2023/07/25 10:51:45;;;;;;;9.90;8.60;;;;;;;33.86;40.71;98526.39;107446;1253;60403;-76
2023/07/25 10:54:22;;;;;;;10.40;9.30;;;;;;;34.08;40.44;98511.77;108689;1252;73146;-81
2023/07/25 10:57:08;;;;;;;11.90;9.00;;;;;;;34.29;39.80;98529.17;108232;1252;70275;-78
2023/07/25 10:59:58;;;;;;;10.60;8.80;;;;;;;34.46;39.49;98518.09;105842;1254;65101;-78
2023/07/25 11:02:30;;;;;;;9.50;8.70;;;;;;;34.57;39.58;98504.55;106816;1254;60405;-77
2023/07/25 11:05:12;;;;;;;10.00;9.10;;;;;;;34.54;39.55;98512.98;107524;1253;60414;-77
2023/07/25 11:07:40;;;;;;;9.60;8.70;;;;;;;34.41;39.80;98504.48;107826;1254;65150;-77
2023/07/25 11:10:07;;;;;;;10.60;9.00;;;;;;;34.43;40.04;98490.67;106353;1256;69487;-78
2023/07/25 11:12:34;;;;;;;10.10;9.20;;;;;;;34.75;39.89;98487.97;106129;1254;72609;-76
2023/07/25 11:15:01;;;;;;;13.30;9.30;;;;;;;34.90;39.66;98497.45;105903;1254;60618;-77
2023/07/25 11:17:28;;;;;;;10.20;9.20;;;;;;;35.09;39.59;98481.21;105875;1254;60446;-79
2023/07/25 11:20:16;;;;;;;10.90;9.70;;;;;;;35.39;39.04;98478.37;106012;1256;74344;-78
2023/07/25 11:22:43;;;;;;;10.40;9.20;;;;;;;35.54;38.68;98482.77;108388;1254;62877;-76
2023/07/25 11:25:10;;;;;;;11.20;9.50;;;;;;;35.43;38.41;98478.20;108899;1253;65200;-78
2023/07/25 11:27:41;;;;;;;11.60;9.80;;;;;;;35.21;38.67;98478.86;108411;1254;60248;-75